Time;durP1;ratioP1;P1;durP2;ratioP2;P2;SDS_P1;SDS_P2;PMS_P1;PMS_P2;Temp;Humidity;BMP_temperature;BMP_pressure;BME280_temperature;BME280_humidity;BME280_pressure;Samples;Min_cycle;Max_cycle;Signal;HPM_P1;HPM_P2
2022/07/06 00:00:52;;;;;;;;;8.00;8.00;;;;;23.51;52.02;101157.92;110196;1265;19351;-63
2022/07/06 00:03:19;;;;;;;;;9.33;8.00;;;;;23.53;51.82;101158.38;110173;1265;18752;-63
2022/07/06 00:05:47;;;;;;;;;12.00;11.00;;;;;23.49;52.00;101153.17;110206;1265;18409;-63
2022/07/06 00:08:14;;;;;;;;;11.00;10.00;;;;;23.40;52.30;101151.21;110221;1265;18379;-63
2022/07/06 00:10:41;;;;;;;;;10.67;10.00;;;;;23.47;52.29;101150.45;110209;1265;21588;-62
2022/07/06 00:13:09;;;;;;;;;11.00;10.33;;;;;23.37;52.52;101151.20;110185;1265;18830;-62
2022/07/06 00:15:36;;;;;;;;;12.33;12.33;;;;;23.29;52.77;101156.08;110187;1264;19390;-64
2022/07/06 00:18:03;;;;;;;;;12.00;12.00;;;;;23.30;52.69;101154.75;110166;1265;18864;-63
2022/07/06 00:20:31;;;;;;;;;11.00;11.00;;;;;23.23;53.05;101151.39;110163;1264;21260;-64
2022/07/06 00:22:58;;;;;;;;;16.00;11.00;;;;;23.29;52.93;101155.23;110160;1265;18307;-63
2022/07/06 00:25:25;;;;;;;;;12.00;11.00;;;;;23.22;52.91;101156.63;110089;1265;18730;-63
2022/07/06 00:27:53;;;;;;;;;15.33;12.67;;;;;23.21;53.15;101155.81;110045;1264;18792;-63
2022/07/06 00:30:20;;;;;;;;;12.67;12.00;;;;;23.38;52.87;101155.22;110106;1265;18260;-64
2022/07/06 00:32:48;;;;;;;;;16.00;15.33;;;;;23.55;52.29;101160.09;110215;1265;19132;-62
2022/07/06 00:35:16;;;;;;;;;15.00;13.00;;;;;23.36;52.35;101160.61;110197;1265;18890;-63
2022/07/06 00:37:43;;;;;;;;;15.50;14.50;;;;;23.05;53.13;101165.58;110184;1264;18245;-63
2022/07/06 00:40:10;;;;;;;;;14.67;12.67;;;;;22.99;53.43;101159.52;110168;1265;18670;-62
2022/07/06 00:42:38;;;;;;;;;13.00;13.00;;;;;23.12;53.22;101163.81;110194;1264;18815;-62
2022/07/06 00:45:05;;;;;;;;;16.00;15.50;;;;;23.16;53.05;101162.82;110173;1265;18339;-64
2022/07/06 00:47:32;;;;;;;;;13.00;12.67;;;;;23.23;52.78;101160.14;110277;1264;21968;-65
2022/07/06 00:50:15;;;;;;;;;12.50;12.50;;;;;23.17;52.76;101161.17;110138;1264;19001;-62
2022/07/06 00:52:42;;;;;;;;;11.33;10.33;;;;;23.11;52.86;101158.48;110194;1264;18333;-62
2022/07/06 00:55:10;;;;;;;;;11.33;10.67;;;;;23.16;52.84;101158.78;110166;1265;21879;-63
2022/07/06 00:57:37;;;;;;;;;10.00;10.00;;;;;23.16;52.74;101159.88;110195;1265;21005;-62
2022/07/06 01:00:04;;;;;;;;;11.00;10.00;;;;;23.15;52.68;101160.84;110179;1264;18440;-63
2022/07/06 01:02:31;;;;;;;;;10.00;9.33;;;;;23.10;52.76;101161.63;110187;1265;19018;-64
2022/07/06 01:04:59;;;;;;;;;12.00;11.67;;;;;23.15;52.68;101156.16;110187;1264;18698;-65
2022/07/06 01:07:26;;;;;;;;;9.00;9.00;;;;;23.21;52.30;101158.23;110192;1264;18368;-63
2022/07/06 01:09:53;;;;;;;;;12.67;11.33;;;;;23.09;52.42;101152.31;110170;1264;19392;-63
2022/07/06 01:12:21;;;;;;;;;10.00;8.00;;;;;23.03;52.75;101156.33;110104;1265;18464;-63
2022/07/06 01:14:48;;;;;;;;;9.33;8.00;;;;;23.30;52.22;101156.18;110164;1265;22061;-63
2022/07/06 01:17:15;;;;;;;;;10.67;10.67;;;;;23.52;51.53;101158.79;110177;1265;22065;-64
2022/07/06 01:19:43;;;;;;;;;10.67;10.00;;;;;23.64;51.26;101154.70;110154;1265;18331;-63
2022/07/06 01:22:10;;;;;;;;;11.67;11.67;;;;;23.75;51.03;101151.86;110136;1265;18341;-63
2022/07/06 01:24:37;;;;;;;;;11.33;11.00;;;;;23.69;50.90;101158.39;110146;1265;21052;-62
2022/07/06 01:27:05;;;;;;;;;11.00;9.33;;;;;23.64;51.02;101160.52;110199;1264;18806;-62
2022/07/06 01:29:32;;;;;;;;;8.00;8.00;;;;;23.61;51.07;101159.34;110187;1265;21187;-63
2022/07/06 01:31:59;;;;;;;;;11.00;11.00;;;;;23.60;51.10;101159.11;110158;1264;19199;-61
2022/07/06 01:34:27;;;;;;;;;10.67;10.67;;;;;23.50;51.20;101159.08;110189;1264;18282;-63
2022/07/06 01:36:54;;;;;;;;;11.00;10.00;;;;;23.48;51.34;101157.62;110162;1264;18276;-65
2022/07/06 01:39:21;;;;;;;;;11.00;11.00;;;;;23.51;51.08;101156.28;110136;1265;18735;-63
2022/07/06 01:41:49;;;;;;;;;11.00;10.67;;;;;23.51;51.15;101153.97;110157;1265;18633;-61
2022/07/06 01:44:16;;;;;;;;;9.00;9.00;;;;;23.47;51.07;101149.98;110184;1265;22077;-63
2022/07/06 01:46:43;;;;;;;;;10.50;10.50;;;;;23.26;51.67;101153.59;110157;1264;18890;-62
2022/07/06 01:49:10;;;;;;;;;10.67;10.00;;;;;23.27;51.86;101152.80;110146;1264;19711;-62
2022/07/06 01:51:38;;;;;;;;;10.67;10.67;;;;;23.28;51.78;101157.40;110158;1265;18354;-63
2022/07/06 01:54:05;;;;;;;;;10.33;10.33;;;;;23.24;51.79;101158.77;110136;1264;18688;-63
2022/07/06 01:56:32;;;;;;;;;10.00;10.00;;;;;23.19;51.96;101155.48;110201;1264;22104;-64
2022/07/06 01:58:59;;;;;;;;;10.00;10.00;;;;;23.27;51.84;101152.79;110148;1265;18311;-63
2022/07/06 02:01:27;;;;;;;;;10.00;8.00;;;;;23.19;51.91;101157.70;110184;1265;18693;-63
2022/07/06 02:03:54;;;;;;;;;11.33;11.00;;;;;23.15;52.08;101154.29;110234;1264;18808;-63
2022/07/06 02:06:21;;;;;;;;;13.00;11.00;;;;;22.97;52.38;101153.02;110119;1265;20193;-63
2022/07/06 02:08:51;;;;;;;;;15.00;14.00;;;;;23.04;52.43;101152.35;110112;1264;18794;-62
2022/07/06 02:11:18;;;;;;;;;11.00;11.00;;;;;22.85;52.69;101155.30;110203;1264;21498;-60
2022/07/06 02:13:46;;;;;;;;;12.00;10.00;;;;;22.58;53.39;101148.48;110191;1265;21937;-65
2022/07/06 02:16:13;;;;;;;;;12.00;11.33;;;;;22.43;53.79;101154.22;110196;1264;19022;-61
2022/07/06 02:18:41;;;;;;;;;11.00;11.00;;;;;22.38;54.07;101156.82;110170;1265;18692;-61
2022/07/06 02:21:08;;;;;;;;;10.00;10.00;;;;;22.43;54.08;101154.42;110148;1264;21984;-65
2022/07/06 02:23:35;;;;;;;;;13.33;12.67;;;;;22.59;53.74;101151.30;110227;1264;18679;-62
2022/07/06 02:26:03;;;;;;;;;11.00;11.00;;;;;22.75;53.38;101149.41;110134;1264;19316;-61
2022/07/06 02:28:30;;;;;;;;;12.00;12.00;;;;;22.76;53.14;101151.48;110154;1265;18900;-63
2022/07/06 02:30:58;;;;;;;;;14.33;14.00;;;;;22.51;53.72;101149.60;110123;1264;18674;-63
2022/07/06 02:33:25;;;;;;;;;16.00;14.00;;;;;22.29;54.19;101150.25;110149;1265;19764;-62
2022/07/06 02:35:52;;;;;;;;;13.33;11.67;;;;;22.19;54.73;101147.80;110178;1265;18331;-61
2022/07/06 02:38:19;;;;;;;;;15.33;14.67;;;;;22.07;54.95;101151.44;110129;1267;18848;-63
2022/07/06 02:40:47;;;;;;;;;20.00;18.50;;;;;22.13;55.07;101150.73;110111;1264;22122;-63
2022/07/06 02:43:14;;;;;;;;;21.50;18.00;;;;;22.09;54.97;101157.04;110139;1264;18355;-64
2022/07/06 02:45:41;;;;;;;;;22.00;21.00;;;;;22.10;55.20;101156.41;110169;1265;20597;-62
2022/07/06 02:48:09;;;;;;;;;20.00;19.67;;;;;22.09;55.29;101158.83;110147;1265;21054;-62
2022/07/06 02:50:36;;;;;;;;;20.00;19.50;;;;;22.05;55.16;101160.95;110246;1264;19242;-64
2022/07/06 02:53:03;;;;;;;;;31.00;29.33;;;;;22.08;55.24;101161.30;110175;1265;19192;-63
2022/07/06 02:55:30;;;;;;;;;28.33;25.00;;;;;22.14;55.25;101167.20;110167;1264;18810;-64
2022/07/06 02:57:57;;;;;;;;;26.33;23.00;;;;;22.11;55.16;101168.44;110157;1264;18341;-64
2022/07/06 03:00:25;;;;;;;;;28.67;26.67;;;;;22.16;55.12;101162.16;110142;1265;19000;-64
2022/07/06 03:02:52;;;;;;;;;27.00;25.00;;;;;22.07;55.24;101157.48;110126;1265;18712;-63
2022/07/06 03:05:20;;;;;;;;;29.50;27.00;;;;;22.11;55.07;101156.63;110199;1265;21415;-63
2022/07/06 03:07:47;;;;;;;;;31.00;27.33;;;;;22.04;55.12;101155.05;110214;1265;18669;-64
2022/07/06 03:10:14;;;;;;;;;27.67;24.00;;;;;22.09;55.16;101153.93;110141;1264;19025;-63
2022/07/06 03:12:42;;;;;;;;;27.50;24.50;;;;;22.10;55.08;101154.73;110143;1265;18314;-62
2022/07/06 03:15:10;;;;;;;;;24.00;23.00;;;;;22.01;55.23;101154.70;110156;1265;18700;-63
2022/07/06 03:17:37;;;;;;;;;29.00;27.50;;;;;21.97;55.59;101152.21;110255;1264;18801;-63
2022/07/06 03:20:04;;;;;;;;;30.67;28.33;;;;;21.94;55.66;101152.22;110146;1264;21168;-63
2022/07/06 03:22:32;;;;;;;;;31.33;29.33;;;;;21.99;55.67;101148.01;110144;1264;21553;-64
2022/07/06 03:24:59;;;;;;;;;26.67;24.00;;;;;22.05;55.50;101145.67;110226;1264;18976;-64
2022/07/06 03:27:27;;;;;;;;;29.00;27.00;;;;;22.02;55.48;101142.78;110144;1264;18355;-63
2022/07/06 03:29:54;;;;;;;;;23.33;22.67;;;;;22.05;55.05;101148.06;110174;1264;19273;-62
2022/07/06 03:32:21;;;;;;;;;19.50;19.00;;;;;21.97;55.11;101148.95;110162;1265;18651;-63
2022/07/06 03:34:49;;;;;;;;;20.00;19.33;;;;;21.95;55.04;101145.53;110166;1265;18375;-63
2022/07/06 03:37:16;;;;;;;;;24.00;18.33;;;;;21.88;54.83;101140.84;110168;1265;18828;-64
2022/07/06 03:39:43;;;;;;;;;18.00;16.67;;;;;21.81;54.86;101149.71;110167;1264;18676;-64
2022/07/06 03:42:11;;;;;;;;;16.00;15.00;;;;;21.83;54.47;101151.64;110173;1264;18381;-62
2022/07/06 03:44:38;;;;;;;;;15.50;15.50;;;;;21.75;54.58;101147.98;110162;1265;18683;-63
2022/07/06 03:47:05;;;;;;;;;15.00;14.67;;;;;21.79;54.33;101146.98;110157;1264;18807;-63
2022/07/06 03:49:32;;;;;;;;;16.00;15.33;;;;;21.83;54.14;101144.89;110163;1265;18191;-62
2022/07/06 03:52:00;;;;;;;;;14.00;14.00;;;;;21.87;53.88;101146.14;110160;1265;19342;-62
2022/07/06 03:54:27;;;;;;;;;14.67;14.00;;;;;21.94;53.74;101145.70;110192;1265;18775;-63
2022/07/06 03:56:54;;;;;;;;;17.00;16.33;;;;;21.84;53.88;101149.36;110177;1264;20112;-59
2022/07/06 03:59:21;;;;;;;;;15.00;14.00;;;;;21.95;53.77;101148.66;110189;1264;18805;-63
2022/07/06 04:01:49;;;;;;;;;13.00;13.00;;;;;21.86;53.74;101143.06;110236;1264;19344;-62
2022/07/06 04:04:17;;;;;;;;;13.00;13.00;;;;;21.89;54.15;101142.91;110236;1264;19489;-64
2022/07/06 04:06:44;;;;;;;;;13.33;13.00;;;;;21.88;54.39;101137.95;110233;1264;18569;-62
2022/07/06 04:09:12;;;;;;;;;13.33;13.00;;;;;21.86;54.49;101137.50;110235;1264;18806;-63
2022/07/06 04:11:39;;;;;;;;;13.00;13.00;;;;;21.86;54.50;101137.81;110240;1264;18329;-64
2022/07/06 04:14:06;;;;;;;;;11.67;11.67;;;;;21.86;54.50;101134.95;110216;1264;18903;-64
2022/07/06 04:16:34;;;;;;;;;15.00;14.00;;;;;21.87;54.76;101136.08;110240;1264;19496;-63
2022/07/06 04:19:01;;;;;;;;;14.33;13.00;;;;;21.93;54.50;101133.73;110244;1264;18383;-64
2022/07/06 04:21:28;;;;;;;;;20.00;18.00;;;;;21.88;54.62;101132.86;110238;1264;18790;-64
2022/07/06 04:23:56;;;;;;;;;17.50;16.00;;;;;21.87;54.96;101132.29;110256;1264;19289;-63
2022/07/06 04:26:23;;;;;;;;;14.67;14.33;;;;;21.94;54.57;101135.29;110221;1264;18213;-62
2022/07/06 04:28:50;;;;;;;;;15.67;14.67;;;;;22.09;54.52;101138.52;110154;1264;18935;-64
2022/07/06 04:31:18;;;;;;;;;13.67;13.67;;;;;22.07;54.44;101135.60;110135;1265;21996;-63
2022/07/06 04:33:45;;;;;;;;;15.00;15.00;;;;;22.01;54.58;101134.90;109992;1264;20370;-60
2022/07/06 04:36:12;;;;;;;;;12.00;12.00;;;;;22.01;54.76;101140.42;110180;1264;19137;-64
2022/07/06 04:38:39;;;;;;;;;13.00;13.00;;;;;22.15;54.50;101139.14;110166;1264;18691;-62
2022/07/06 04:41:07;;;;;;;;;14.33;14.00;;;;;22.23;54.50;101136.56;110145;1265;18312;-62
2022/07/06 04:43:34;;;;;;;;;11.00;10.67;;;;;22.36;54.19;101137.86;110174;1265;21892;-63
2022/07/06 04:46:01;;;;;;;;;14.33;14.33;;;;;22.45;53.95;101141.07;110082;1264;19093;-62
2022/07/06 04:48:29;;;;;;;;;16.00;16.00;;;;;22.37;54.30;101142.95;110234;1264;18368;-65
2022/07/06 04:50:56;;;;;;;;;22.67;19.00;;;;;22.22;54.76;101143.40;110155;1265;18714;-63
2022/07/06 04:53:24;;;;;;;;;15.67;14.33;;;;;22.22;54.89;101147.04;110130;1267;18788;-62
2022/07/06 04:55:51;;;;;;;;;20.33;19.33;;;;;22.19;54.96;101146.64;110129;1265;19834;-65
2022/07/06 04:58:19;;;;;;;;;19.00;18.00;;;;;22.01;55.70;101144.63;110097;1265;19371;-64
2022/07/06 05:00:46;;;;;;;;;22.33;19.67;;;;;22.16;55.79;101143.51;110188;1264;18892;-62
2022/07/06 05:03:14;;;;;;;;;33.00;30.00;;;;;22.20;56.00;101140.77;110057;1264;18518;-63
2022/07/06 05:05:41;;;;;;;;;23.00;22.50;;;;;22.08;56.40;101135.67;110126;1265;19824;-63
2022/07/06 05:08:08;;;;;;;;;20.67;19.33;;;;;22.02;56.87;101140.32;110140;1264;19242;-64
2022/07/06 05:10:36;;;;;;;;;18.67;17.33;;;;;21.83;57.48;101136.92;110116;1264;18284;-64
2022/07/06 05:13:03;;;;;;;;;18.00;16.00;;;;;21.74;57.93;101136.10;110185;1264;19252;-62
2022/07/06 05:15:30;;;;;;;;;16.00;15.00;;;;;22.04;57.13;101139.05;110114;1265;18718;-65
2022/07/06 05:17:58;;;;;;;;;15.50;15.00;;;;;22.05;57.10;101140.02;110161;1264;22054;-63
2022/07/06 05:20:25;;;;;;;;;18.00;16.33;;;;;21.76;57.63;101136.43;110182;1265;22864;-61
2022/07/06 05:22:53;;;;;;;;;14.33;14.33;;;;;21.48;58.71;101134.55;110193;1264;19953;-62
2022/07/06 05:25:21;;;;;;;;;15.00;14.33;;;;;21.78;58.14;101132.41;110146;1264;18220;-62
2022/07/06 05:27:48;;;;;;;;;14.00;13.33;;;;;22.15;57.23;101136.65;110263;1265;19142;-64
2022/07/06 05:30:16;;;;;;;;;14.50;14.00;;;;;22.49;56.28;101132.81;110204;1265;19228;-64
2022/07/06 05:32:44;;;;;;;;;12.67;12.67;;;;;22.59;55.93;101131.02;110234;1265;20031;-63
2022/07/06 05:35:11;;;;;;;;;11.33;11.33;;;;;22.56;55.96;101131.06;110224;1265;18753;-64
2022/07/06 05:37:39;;;;;;;;;11.00;11.00;;;;;22.57;55.94;101131.65;110210;1264;19371;-65
2022/07/06 05:40:06;;;;;;;;;11.33;11.33;;;;;22.53;55.89;101133.01;110253;1265;18260;-63
2022/07/06 05:42:34;;;;;;;;;11.00;10.50;;;;;22.55;55.92;101130.84;110231;1264;20176;-65
2022/07/06 05:45:03;;;;;;;;;11.50;11.00;;;;;22.55;55.70;101128.66;110268;1265;18915;-62
2022/07/06 05:50:17;;;;;;;;;10.67;10.67;;;;;22.69;55.04;101124.98;110157;1264;21438;-64
2022/07/06 05:52:44;;;;;;;;;10.00;9.33;;;;;22.65;55.04;101129.04;110163;1264;18707;-63
2022/07/06 05:55:12;;;;;;;;;10.00;10.00;;;;;22.57;55.13;101127.95;110218;1265;19351;-65
2022/07/06 05:57:39;;;;;;;;;11.00;10.00;;;;;22.70;55.12;101127.20;110226;1264;21879;-64
2022/07/06 06:00:07;;;;;;;;;11.00;11.00;;;;;22.87;54.56;101131.27;110217;1264;18874;-62
2022/07/06 06:02:34;;;;;;;;;9.00;9.00;;;;;22.92;54.19;101131.96;110215;1264;22001;-64
2022/07/06 06:05:01;;;;;;;;;11.00;10.00;;;;;23.02;53.70;101130.94;110186;1264;18834;-63
2022/07/06 06:07:28;;;;;;;;;11.00;10.00;;;;;23.02;53.28;101131.45;110238;1264;18384;-64
2022/07/06 06:09:56;;;;;;;;;10.00;10.00;;;;;23.11;52.98;101126.23;110270;1264;21609;-64
2022/07/06 06:12:23;;;;;;;;;12.00;11.00;;;;;23.29;52.58;101125.45;110189;1265;21469;-66
2022/07/06 06:14:51;;;;;;;;;10.00;10.00;;;;;23.32;52.05;101118.59;110272;1264;18708;-64
2022/07/06 06:17:18;;;;;;;;;12.00;12.00;;;;;23.30;52.01;101111.40;110163;1265;18337;-63
2022/07/06 06:19:45;;;;;;;;;10.00;10.00;;;;;23.30;51.00;101109.68;110211;1264;18699;-63
2022/07/06 06:22:13;;;;;;;;;9.00;7.67;;;;;23.30;50.03;101114.23;110121;1264;18720;-62
2022/07/06 06:24:40;;;;;;;;;9.00;9.00;;;;;23.10;49.14;101111.89;110200;1264;19686;-63
2022/07/06 06:27:07;;;;;;;;;10.00;9.00;;;;;23.00;49.27;101111.30;110096;1264;18816;-62
2022/07/06 06:29:35;;;;;;;;;8.67;7.67;;;;;23.03;48.70;101111.83;110125;1268;18359;-65
2022/07/06 06:32:02;;;;;;;;;9.00;7.00;;;;;23.00;47.98;101109.31;110068;1265;18141;-63
2022/07/06 06:34:29;;;;;;;;;10.00;9.00;;;;;22.93;47.57;101110.50;110094;1265;18622;-64
2022/07/06 06:36:56;;;;;;;;;10.50;9.50;;;;;22.94;47.37;101112.23;110198;1264;18449;-63
2022/07/06 06:39:24;;;;;;;;;7.00;6.67;;;;;23.28;47.13;101113.77;110199;1265;18321;-63
2022/07/06 06:41:51;;;;;;;;;6.00;6.00;;;;;23.34;46.18;101118.13;110251;1264;19113;-64
2022/07/06 06:44:19;;;;;;;;;7.00;6.00;;;;;23.26;45.55;101118.58;110185;1264;18472;-64
2022/07/06 06:46:46;;;;;;;;;7.67;6.00;;;;;23.36;45.31;101123.03;110222;1264;18643;-64
2022/07/06 06:49:13;;;;;;;;;7.33;6.67;;;;;23.50;45.08;101124.58;110185;1265;22263;-63
2022/07/06 06:51:41;;;;;;;;;5.67;5.00;;;;;23.53;44.98;101122.02;110152;1265;19888;-66
2022/07/06 06:54:08;;;;;;;;;6.00;6.00;;;;;23.60;44.69;101123.21;110115;1264;18100;-66
2022/07/06 06:56:35;;;;;;;;;7.00;6.67;;;;;23.65;44.50;101123.69;110231;1267;19239;-66
2022/07/06 06:59:03;;;;;;;;;7.00;6.50;;;;;23.74;44.18;101123.17;110215;1265;19093;-65
2022/07/06 07:01:30;;;;;;;;;6.67;6.67;;;;;23.65;44.37;101118.95;110126;1265;20231;-65
2022/07/06 07:03:57;;;;;;;;;7.33;7.00;;;;;23.76;44.89;101111.79;110220;1265;19103;-64
2022/07/06 07:06:25;;;;;;;;;10.33;8.00;;;;;23.76;45.20;101113.10;110162;1265;20489;-65
2022/07/06 07:08:52;;;;;;;;;8.00;8.00;;;;;23.80;45.36;101109.45;110192;1268;20117;-66
2022/07/06 07:11:19;;;;;;;;;10.50;10.50;;;;;23.75;45.93;101108.23;110215;1264;18826;-64
2022/07/06 07:13:46;;;;;;;;;8.00;8.00;;;;;23.81;46.29;101110.56;110168;1264;19814;-62
2022/07/06 07:16:14;;;;;;;;;11.67;11.67;;;;;23.91;46.70;101105.70;110163;1265;17965;-64
2022/07/06 07:18:41;;;;;;;;;15.00;13.33;;;;;23.91;47.19;101102.61;110195;1265;18784;-63
2022/07/06 07:21:09;;;;;;;;;18.33;15.00;;;;;23.72;47.19;101104.19;110170;1265;18778;-64
2022/07/06 07:23:36;;;;;;;;;16.00;15.00;;;;;23.66;47.08;101108.25;110218;1265;18254;-65
2022/07/06 07:26:04;;;;;;;;;10.67;10.67;;;;;23.51;47.16;101115.23;110038;1264;21300;-62
2022/07/06 07:28:31;;;;;;;;;8.00;8.00;;;;;23.36;47.26;101113.52;110179;1265;19398;-64
2022/07/06 07:30:58;;;;;;;;;6.33;6.33;;;;;23.19;45.88;101113.06;110164;1265;22280;-65
2022/07/06 07:33:25;;;;;;;;;7.00;7.00;;;;;23.21;44.93;101115.55;110154;1264;18669;-62
2022/07/06 07:35:53;;;;;;;;;6.00;6.00;;;;;23.45;43.87;101114.95;110151;1265;19172;-65
2022/07/06 07:38:20;;;;;;;;;5.00;5.00;;;;;23.53;43.51;101117.54;110136;1265;18068;-60
2022/07/06 07:40:48;;;;;;;;;3.00;3.00;;;;;23.64;43.07;101118.30;109849;1264;337383;-61
2022/07/06 07:43:15;;;;;;;;;5.67;5.67;;;;;23.65;42.99;101122.23;110143;1265;18277;-62
2022/07/06 07:45:43;;;;;;;;;5.00;5.00;;;;;23.58;43.11;101120.66;110100;1265;18270;-63
2022/07/06 07:48:10;;;;;;;;;5.00;5.00;;;;;23.56;43.44;101125.17;110151;1265;18628;-61
2022/07/06 07:50:38;;;;;;;;;6.00;6.00;;;;;23.71;43.48;101130.63;110184;1264;18444;-64
2022/07/06 07:53:05;;;;;;;;;5.00;5.00;;;;;23.70;43.82;101129.34;110202;1265;18156;-60
2022/07/06 07:55:32;;;;;;;;;6.00;6.00;;;;;23.72;44.06;101130.69;110128;1264;18861;-61
2022/07/06 07:57:59;;;;;;;;;6.00;6.00;;;;;23.80;44.20;101132.34;110041;1264;19028;-60
2022/07/06 08:00:28;;;;;;;;;6.00;6.00;;;;;23.79;44.47;101128.05;110198;1265;18012;-64
2022/07/06 08:02:55;;;;;;;;;8.00;7.00;;;;;23.64;44.85;101135.37;110288;1264;18941;-64
2022/07/06 08:05:23;;;;;;;;;6.33;6.00;;;;;23.41;45.47;101131.16;110216;1264;20077;-64
2022/07/06 08:07:50;;;;;;;;;5.33;5.33;;;;;23.25;45.82;101126.05;110174;1264;17979;-65
2022/07/06 08:10:17;;;;;;;;;7.00;7.00;;;;;23.35;45.75;101126.08;110182;1265;18676;-64
2022/07/06 08:12:44;;;;;;;;;6.00;6.00;;;;;23.48;45.34;101122.13;110208;1265;18460;-64
2022/07/06 08:15:12;;;;;;;;;6.00;6.00;;;;;23.61;44.81;101114.63;110223;1264;17907;-64
2022/07/06 08:17:39;;;;;;;;;6.00;6.00;;;;;23.71;44.26;101112.89;110201;1265;18693;-65
2022/07/06 08:20:07;;;;;;;;;6.67;6.00;;;;;23.94;43.73;101106.78;110152;1265;18473;-63
2022/07/06 08:22:34;;;;;;;;;6.00;6.00;;;;;24.14;43.51;101104.36;110070;1265;24770;-65
2022/07/06 08:25:02;;;;;;;;;7.00;6.00;;;;;24.14;43.54;101107.20;110226;1265;18784;-64
2022/07/06 08:27:29;;;;;;;;;5.50;5.50;;;;;24.11;43.78;101107.09;110179;1264;19645;-63
2022/07/06 08:29:56;;;;;;;;;7.00;7.00;;;;;24.00;43.78;101104.46;110290;1264;19374;-66
2022/07/06 08:32:23;;;;;;;;;6.33;6.33;;;;;24.15;43.60;101100.55;110227;1264;18814;-63
2022/07/06 08:34:51;;;;;;;;;6.33;5.67;;;;;24.12;43.35;101102.90;110257;1264;18661;-63
2022/07/06 08:37:19;;;;;;;;;6.33;6.33;;;;;24.19;43.66;101102.14;110235;1264;18585;-63
2022/07/06 08:39:46;;;;;;;;;7.00;7.00;;;;;24.23;43.62;101105.23;110206;1265;18855;-61
2022/07/06 08:42:13;;;;;;;;;7.50;7.50;;;;;24.19;43.38;101104.47;110184;1265;22056;-62
2022/07/06 08:44:40;;;;;;;;;6.67;6.67;;;;;24.11;43.40;101105.08;110221;1265;19400;-64
2022/07/06 08:47:08;;;;;;;;;5.67;5.67;;;;;24.07;42.91;101101.15;110255;1265;20385;-62
2022/07/06 08:49:35;;;;;;;;;8.00;8.00;;;;;24.15;42.65;101100.00;110227;1264;18446;-66
2022/07/06 08:52:03;;;;;;;;;7.00;6.00;;;;;24.16;42.35;101096.77;110204;1265;20658;-63
2022/07/06 08:54:30;;;;;;;;;7.00;7.00;;;;;24.33;42.37;101098.34;110244;1264;18681;-63
2022/07/06 08:56:58;;;;;;;;;6.33;6.33;;;;;24.37;42.11;101090.14;110276;1264;22125;-63
2022/07/06 08:59:27;;;;;;;;;6.33;6.33;;;;;24.23;41.90;101088.77;110282;1264;22027;-63
2022/07/06 09:01:55;;;;;;;;;6.00;5.00;;;;;24.27;41.66;101092.67;110253;1265;18576;-63
2022/07/06 09:04:22;;;;;;;;;6.00;6.00;;;;;24.28;41.22;101090.21;110249;1264;19411;-64
2022/07/06 09:06:49;;;;;;;;;6.00;6.00;;;;;24.27;41.22;101092.48;110257;1264;18026;-65
2022/07/06 09:09:16;;;;;;;;;5.00;5.00;;;;;24.27;41.15;101096.55;110255;1264;22182;-63
2022/07/06 09:11:44;;;;;;;;;5.00;5.00;;;;;24.34;40.97;101095.11;110194;1265;23478;-64
2022/07/06 09:14:11;;;;;;;;;6.00;6.00;;;;;24.33;41.02;101089.60;110219;1264;18162;-59
2022/07/06 09:16:39;;;;;;;;;6.50;6.50;;;;;24.45;41.01;101091.16;110258;1264;18711;-62
2022/07/06 09:19:06;;;;;;;;;7.00;7.00;;;;;24.59;40.99;101087.60;110224;1264;21952;-62
2022/07/06 09:21:36;;;;;;;;;4.00;4.00;;;;;24.64;40.68;101086.95;110216;1264;18287;-63
2022/07/06 09:24:03;;;;;;;;;6.00;4.00;;;;;24.75;40.37;101088.79;110235;1264;19173;-63
2022/07/06 09:26:30;;;;;;;;;4.33;4.33;;;;;24.84;40.28;101086.23;110231;1265;18372;-63
2022/07/06 09:28:59;;;;;;;;;5.67;5.67;;;;;24.97;40.16;101089.86;110175;1264;18252;-66
2022/07/06 09:31:26;;;;;;;;;6.00;6.00;;;;;25.08;40.58;101090.63;110214;1265;18710;-64
2022/07/06 09:33:53;;;;;;;;;5.00;5.00;;;;;24.99;40.64;101095.11;110128;1265;21036;-62
2022/07/06 09:36:21;;;;;;;;;6.00;6.00;;;;;24.90;40.66;101089.50;110250;1264;18120;-63
2022/07/06 09:38:48;;;;;;;;;6.00;5.50;;;;;24.87;40.56;101089.30;110211;1264;18757;-64
2022/07/06 09:41:15;;;;;;;;;5.00;5.00;;;;;24.73;40.60;101088.11;110198;1264;26001;-61
2022/07/06 09:43:43;;;;;;;;;4.00;4.00;;;;;24.66;40.78;101089.59;110121;1265;19525;-64
2022/07/06 09:46:10;;;;;;;;;6.00;4.00;;;;;24.47;40.50;101086.20;110230;1265;18743;-63
2022/07/06 09:48:37;;;;;;;;;4.00;4.00;;;;;24.44;40.54;101081.38;110266;1264;18378;-63
2022/07/06 09:51:06;;;;;;;;;5.50;4.00;;;;;24.63;40.51;101075.55;110202;1264;22103;-61
2022/07/06 09:53:33;;;;;;;;;6.00;6.00;;;;;24.77;40.20;101069.34;110192;1267;18746;-63
2022/07/06 09:56:01;;;;;;;;;4.00;4.00;;;;;24.62;39.73;101062.34;110218;1264;18409;-64
2022/07/06 09:58:29;;;;;;;;;4.67;4.67;;;;;24.62;39.54;101062.65;110193;1264;18019;-63
2022/07/06 10:00:56;;;;;;;;;6.00;6.00;;;;;24.72;39.45;101061.10;110249;1264;21307;-64
2022/07/06 10:03:23;;;;;;;;;4.00;4.00;;;;;24.85;39.34;101055.67;110192;1265;18392;-63
2022/07/06 10:05:51;;;;;;;;;6.00;4.00;;;;;24.93;39.30;101060.88;110273;1264;18071;-64
2022/07/06 10:08:18;;;;;;;;;4.33;4.33;;;;;24.76;39.58;101066.20;110190;1264;20365;-64
2022/07/06 10:10:45;;;;;;;;;4.67;4.67;;;;;24.63;39.87;101068.17;110188;1264;18857;-64
2022/07/06 10:13:13;;;;;;;;;6.00;4.00;;;;;24.42;39.81;101066.83;110218;1264;18235;-64
2022/07/06 10:15:40;;;;;;;;;6.00;6.00;;;;;24.13;40.09;101070.14;110198;1265;19268;-63
2022/07/06 10:18:07;;;;;;;;;5.00;5.00;;;;;24.02;40.33;101070.79;110230;1264;18435;-63
2022/07/06 10:20:36;;;;;;;;;7.00;7.00;;;;;24.03;40.49;101076.40;110200;1264;18276;-64
2022/07/06 10:23:03;;;;;;;;;8.00;7.67;;;;;24.06;40.65;101078.14;110190;1264;21780;-63
2022/07/06 10:25:30;;;;;;;;;8.00;7.00;;;;;23.94;40.64;101078.86;110189;1264;18392;-62
2022/07/06 10:27:58;;;;;;;;;7.67;7.67;;;;;23.85;40.85;101080.72;110161;1265;18808;-63
2022/07/06 10:30:25;;;;;;;;;12.67;10.67;;;;;23.77;41.27;101080.88;110216;1264;18663;-64
2022/07/06 10:32:52;;;;;;;;;8.00;8.00;;;;;23.74;41.43;101085.77;110296;1264;18651;-63
2022/07/06 10:35:19;;;;;;;;;10.67;10.00;;;;;23.85;41.29;101085.82;110195;1265;20863;-61
2022/07/06 10:37:47;;;;;;;;;18.50;17.00;;;;;23.99;41.28;101084.45;110211;1264;18868;-62
2022/07/06 10:42:59;;;;;;;;;17.67;16.00;;;;;23.93;41.42;101084.32;110198;1264;18589;-67
2022/07/06 10:45:26;;;;;;;;;12.33;12.33;;;;;23.85;41.45;101087.27;110160;1265;18685;-63
2022/07/06 10:47:53;;;;;;;;;12.00;11.00;;;;;23.81;41.65;101088.74;110254;1264;22877;-63
2022/07/06 10:50:21;;;;;;;;;8.00;8.00;;;;;23.70;42.10;101089.59;110085;1264;21052;-64
2022/07/06 10:52:48;;;;;;;;;9.00;7.67;;;;;23.52;42.40;101101.92;110116;1264;18823;-63
2022/07/06 10:55:15;;;;;;;;;7.00;7.00;;;;;23.45;42.98;101113.52;109989;1265;18290;-62
2022/07/06 10:57:42;;;;;;;;;9.00;8.00;;;;;23.29;44.40;101116.27;110089;1264;18390;-62
2022/07/06 11:00:10;;;;;;;;;10.50;9.50;;;;;23.08;46.03;101123.77;110140;1265;18833;-60
2022/07/06 11:02:37;;;;;;;;;8.33;7.00;;;;;22.65;47.96;101125.92;110199;1265;18302;-63
2022/07/06 11:05:06;;;;;;;;;9.00;9.00;;;;;22.65;48.95;101129.20;110158;1264;18011;-61
2022/07/06 11:07:33;;;;;;;;;7.00;7.00;;;;;22.37;50.41;101131.23;110042;1264;18683;-62
2022/07/06 11:10:00;;;;;;;;;8.00;8.00;;;;;22.23;51.34;101130.10;109956;1264;22293;-61
2022/07/06 11:12:27;;;;;;;;;9.00;7.67;;;;;22.24;52.01;101134.85;110123;1265;21585;-61